Ettrick, Virginia
Current Conditions -  °F | °C
As of 4:35 PM on Saturday 22 Nov 2014 (Local Time) from KPTB Reporting Station
Clear Clear  
Wind Chill: 47°   Ceiling: Unl
Heat Index: 47°   Visibility: 10mi
Dew Point: 15°   Wind: 3mph
Humidity: 28%   Direction: 180°S
Pressure: 30.39"   Gusts: NA
Location:  37.2163°N, 77.4783°W
Report Text: KPTB 222135Z AUTO 18003KT 10SM CLR 09/M09 A3039 RMK AO2 T00851092
Loading
Personal Weather Stations






























Interactive Weather Map New forecast layout! Learn more

10-Day Weather Forecast

Advertisements
Track Severe Weather on mobile